sensor_id;sensor_type;location;lat;lon;timestamp;P1;P2;P0
57884;PMS5003;43703;51.060;-0.086;2023-02-17T00:00:36;15;14;
57884;PMS5003;43703;51.060;-0.086;2023-02-17T00:03:02;16;15;
57884;PMS5003;43703;51.060;-0.086;2023-02-17T00:05:28;17;15;
57884;PMS5003;43703;51.060;-0.086;2023-02-17T00:07:52;19;19;
57884;PMS5003;43703;51.060;-0.086;2023-02-17T00:10:17;18;18;
57884;PMS5003;43703;51.060;-0.086;2023-02-17T00:12:43;18;17;
57884;PMS5003;43703;51.060;-0.086;2023-02-17T00:15:09;19;16;
57884;PMS5003;43703;51.060;-0.086;2023-02-17T00:17:34;17;17;
57884;PMS5003;43703;51.060;-0.086;2023-02-17T00:20:00;17;15;
57884;PMS5003;43703;51.060;-0.086;2023-02-17T00:22:25;19;18;
57884;PMS5003;43703;51.060;-0.086;2023-02-17T00:24:51;20;18;
57884;PMS5003;43703;51.060;-0.086;2023-02-17T00:27:16;17;16;
57884;PMS5003;43703;51.060;-0.086;2023-02-17T00:29:41;21;18;
57884;PMS5003;43703;51.060;-0.086;2023-02-17T00:32:07;20;20;
57884;PMS5003;43703;51.060;-0.086;2023-02-17T00:34:33;25;21;
57884;PMS5003;43703;51.060;-0.086;2023-02-17T00:36:58;22;19;
57884;PMS5003;43703;51.060;-0.086;2023-02-17T00:39:24;18;18;
57884;PMS5003;43703;51.060;-0.086;2023-02-17T00:41:49;23;20;
57884;PMS5003;43703;51.060;-0.086;2023-02-17T00:44:15;22;20;
57884;PMS5003;43703;51.060;-0.086;2023-02-17T00:46:40;16;16;
57884;PMS5003;43703;51.060;-0.086;2023-02-17T00:49:05;21;19;
57884;PMS5003;43703;51.060;-0.086;2023-02-17T00:51:30;21;20;
57884;PMS5003;43703;51.060;-0.086;2023-02-17T00:53:56;19;19;
57884;PMS5003;43703;51.060;-0.086;2023-02-17T00:56:21;18;18;
57884;PMS5003;43703;51.060;-0.086;2023-02-17T00:58:47;23;19;
57884;PMS5003;43703;51.060;-0.086;2023-02-17T01:01:12;21;20;
57884;PMS5003;43703;51.060;-0.086;2023-02-17T01:03:37;19;17;
57884;PMS5003;43703;51.060;-0.086;2023-02-17T01:06:04;16;15;
57884;PMS5003;43703;51.060;-0.086;2023-02-17T01:08:28;22;20;
57884;PMS5003;43703;51.060;-0.086;2023-02-17T01:10:53;19;19;
57884;PMS5003;43703;51.060;-0.086;2023-02-17T01:13:19;17;17;
57884;PMS5003;43703;51.060;-0.086;2023-02-17T01:15:45;18;17;
57884;PMS5003;43703;51.060;-0.086;2023-02-17T01:18:10;19;17;
57884;PMS5003;43703;51.060;-0.086;2023-02-17T01:20:35;16;16;
57884;PMS5003;43703;51.060;-0.086;2023-02-17T01:23:01;19;18;
57884;PMS5003;43703;51.060;-0.086;2023-02-17T01:25:26;25;21;
57884;PMS5003;43703;51.060;-0.086;2023-02-17T01:27:52;21;20;
57884;PMS5003;43703;51.060;-0.086;2023-02-17T01:30:17;17;17;
57884;PMS5003;43703;51.060;-0.086;2023-02-17T01:32:43;22;22;
57884;PMS5003;43703;51.060;-0.086;2023-02-17T01:35:08;22;17;
57884;PMS5003;43703;51.060;-0.086;2023-02-17T01:37:34;20;19;
57884;PMS5003;43703;51.060;-0.086;2023-02-17T01:39:59;21;21;
57884;PMS5003;43703;51.060;-0.086;2023-02-17T01:42:24;24;22;
57884;PMS5003;43703;51.060;-0.086;2023-02-17T01:47:15;24;20;
57884;PMS5003;43703;51.060;-0.086;2023-02-17T01:49:41;21;19;
57884;PMS5003;43703;51.060;-0.086;2023-02-17T01:52:08;23;23;
57884;PMS5003;43703;51.060;-0.086;2023-02-17T01:54:34;20;19;
57884;PMS5003;43703;51.060;-0.086;2023-02-17T01:56:57;22;20;
57884;PMS5003;43703;51.060;-0.086;2023-02-17T01:59:23;21;21;
57884;PMS5003;43703;51.060;-0.086;2023-02-17T02:01:49;22;18;
57884;PMS5003;43703;51.060;-0.086;2023-02-17T02:04:14;21;19;
57884;PMS5003;43703;51.060;-0.086;2023-02-17T02:06:39;20;17;
57884;PMS5003;43703;51.060;-0.086;2023-02-17T02:09:06;20;18;
57884;PMS5003;43703;51.060;-0.086;2023-02-17T02:11:31;20;19;
57884;PMS5003;43703;51.060;-0.086;2023-02-17T02:13:56;19;19;
57884;PMS5003;43703;51.060;-0.086;2023-02-17T02:16:22;22;20;
57884;PMS5003;43703;51.060;-0.086;2023-02-17T02:18:49;21;18;
57884;PMS5003;43703;51.060;-0.086;2023-02-17T02:23:42;19;17;
57884;PMS5003;43703;51.060;-0.086;2023-02-17T02:28:31;21;20;
57884;PMS5003;43703;51.060;-0.086;2023-02-17T02:31:01;19;18;
57884;PMS5003;43703;51.060;-0.086;2023-02-17T02:33:22;19;18;
57884;PMS5003;43703;51.060;-0.086;2023-02-17T02:35:46;22;20;
57884;PMS5003;43703;51.060;-0.086;2023-02-17T02:38:11;18;18;
57884;PMS5003;43703;51.060;-0.086;2023-02-17T02:40:36;21;19;
57884;PMS5003;43703;51.060;-0.086;2023-02-17T02:43:01;22;19;
57884;PMS5003;43703;51.060;-0.086;2023-02-17T02:45:26;21;19;
57884;PMS5003;43703;51.060;-0.086;2023-02-17T02:47:52;24;18;
57884;PMS5003;43703;51.060;-0.086;2023-02-17T02:50:19;16;15;
57884;PMS5003;43703;51.060;-0.086;2023-02-17T02:52:45;21;17;
57884;PMS5003;43703;51.060;-0.086;2023-02-17T02:55:08;23;18;
57884;PMS5003;43703;51.060;-0.086;2023-02-17T02:57:36;18;18;
57884;PMS5003;43703;51.060;-0.086;2023-02-17T03:00:03;20;17;
57884;PMS5003;43703;51.060;-0.086;2023-02-17T03:02:25;18;18;
57884;PMS5003;43703;51.060;-0.086;2023-02-17T03:04:50;22;19;
57884;PMS5003;43703;51.060;-0.086;2023-02-17T03:07:15;19;16;
57884;PMS5003;43703;51.060;-0.086;2023-02-17T03:09:39;18;17;
57884;PMS5003;43703;51.060;-0.086;2023-02-17T03:12:05;16;16;
57884;PMS5003;43703;51.060;-0.086;2023-02-17T03:14:33;18;16;
57884;PMS5003;43703;51.060;-0.086;2023-02-17T03:16:56;18;17;
57884;PMS5003;43703;51.060;-0.086;2023-02-17T03:19:22;18;16;
57884;PMS5003;43703;51.060;-0.086;2023-02-17T03:21:48;20;18;
57884;PMS5003;43703;51.060;-0.086;2023-02-17T03:24:12;15;15;
57884;PMS5003;43703;51.060;-0.086;2023-02-17T03:26:37;16;16;
57884;PMS5003;43703;51.060;-0.086;2023-02-17T03:29:03;14;14;
57884;PMS5003;43703;51.060;-0.086;2023-02-17T03:31:28;16;15;
57884;PMS5003;43703;51.060;-0.086;2023-02-17T03:33:53;16;15;
57884;PMS5003;43703;51.060;-0.086;2023-02-17T03:36:19;18;17;
57884;PMS5003;43703;51.060;-0.086;2023-02-17T03:38:44;16;16;
57884;PMS5003;43703;51.060;-0.086;2023-02-17T03:41:09;15;15;
57884;PMS5003;43703;51.060;-0.086;2023-02-17T03:43:35;17;16;
57884;PMS5003;43703;51.060;-0.086;2023-02-17T03:46:00;19;18;
57884;PMS5003;43703;51.060;-0.086;2023-02-17T03:48:26;13;13;
57884;PMS5003;43703;51.060;-0.086;2023-02-17T03:50:51;14;14;
57884;PMS5003;43703;51.060;-0.086;2023-02-17T03:53:16;13;12;
57884;PMS5003;43703;51.060;-0.086;2023-02-17T03:55:41;18;15;
57884;PMS5003;43703;51.060;-0.086;2023-02-17T03:58:06;18;17;
57884;PMS5003;43703;51.060;-0.086;2023-02-17T04:00:31;14;14;
57884;PMS5003;43703;51.060;-0.086;2023-02-17T04:02:56;19;17;
57884;PMS5003;43703;51.060;-0.086;2023-02-17T04:05:21;12;12;
57884;PMS5003;43703;51.060;-0.086;2023-02-17T04:07:47;16;14;
57884;PMS5003;43703;51.060;-0.086;2023-02-17T04:10:12;18;16;
57884;PMS5003;43703;51.060;-0.086;2023-02-17T04:12:38;17;15;
57884;PMS5003;43703;51.060;-0.086;2023-02-17T04:15:03;17;16;
57884;PMS5003;43703;51.060;-0.086;2023-02-17T04:17:28;14;14;
57884;PMS5003;43703;51.060;-0.086;2023-02-17T04:19:54;15;14;
57884;PMS5003;43703;51.060;-0.086;2023-02-17T04:22:19;14;14;
57884;PMS5003;43703;51.060;-0.086;2023-02-17T04:24:44;17;17;
57884;PMS5003;43703;51.060;-0.086;2023-02-17T04:27:12;14;12;
57884;PMS5003;43703;51.060;-0.086;2023-02-17T04:29:35;12;12;
57884;PMS5003;43703;51.060;-0.086;2023-02-17T04:32:01;17;15;
57884;PMS5003;43703;51.060;-0.086;2023-02-17T04:34:26;19;16;
57884;PMS5003;43703;51.060;-0.086;2023-02-17T04:36:52;13;13;
57884;PMS5003;43703;51.060;-0.086;2023-02-17T04:39:17;12;12;
57884;PMS5003;43703;51.060;-0.086;2023-02-17T04:41:43;13;13;
57884;PMS5003;43703;51.060;-0.086;2023-02-17T04:44:08;13;12;
57884;PMS5003;43703;51.060;-0.086;2023-02-17T04:46:33;14;13;
57884;PMS5003;43703;51.060;-0.086;2023-02-17T04:48:58;16;14;
57884;PMS5003;43703;51.060;-0.086;2023-02-17T04:51:23;14;14;
57884;PMS5003;43703;51.060;-0.086;2023-02-17T04:53:48;12;11;
57884;PMS5003;43703;51.060;-0.086;2023-02-17T04:56:14;13;12;
57884;PMS5003;43703;51.060;-0.086;2023-02-17T04:58:39;11;11;
57884;PMS5003;43703;51.060;-0.086;2023-02-17T05:01:04;11;11;
57884;PMS5003;43703;51.060;-0.086;2023-02-17T05:03:29;12;10;
57884;PMS5003;43703;51.060;-0.086;2023-02-17T05:05:56;15;15;
57884;PMS5003;43703;51.060;-0.086;2023-02-17T05:08:20;14;14;
57884;PMS5003;43703;51.060;-0.086;2023-02-17T05:10:45;15;14;
57884;PMS5003;43703;51.060;-0.086;2023-02-17T05:13:10;12;12;
57884;PMS5003;43703;51.060;-0.086;2023-02-17T05:15:36;12;12;
57884;PMS5003;43703;51.060;-0.086;2023-02-17T05:18:02;17;13;
57884;PMS5003;43703;51.060;-0.086;2023-02-17T05:20:27;14;13;
57884;PMS5003;43703;51.060;-0.086;2023-02-17T05:22:53;11;11;
57884;PMS5003;43703;51.060;-0.086;2023-02-17T05:25:18;14;12;
57884;PMS5003;43703;51.060;-0.086;2023-02-17T05:27:43;11;10;
57884;PMS5003;43703;51.060;-0.086;2023-02-17T05:30:09;13;11;
57884;PMS5003;43703;51.060;-0.086;2023-02-17T05:32:33;14;13;
57884;PMS5003;43703;51.060;-0.086;2023-02-17T05:34:58;10;10;
57884;PMS5003;43703;51.060;-0.086;2023-02-17T05:37:25;11;11;
57884;PMS5003;43703;51.060;-0.086;2023-02-17T05:39:52;10;9;
57884;PMS5003;43703;51.060;-0.086;2023-02-17T05:42:15;12;10;
57884;PMS5003;43703;51.060;-0.086;2023-02-17T05:44:41;12;10;
57884;PMS5003;43703;51.060;-0.086;2023-02-17T05:47:06;13;13;
57884;PMS5003;43703;51.060;-0.086;2023-02-17T05:49:31;9;9;
57884;PMS5003;43703;51.060;-0.086;2023-02-17T05:51:57;13;13;
57884;PMS5003;43703;51.060;-0.086;2023-02-17T05:54:22;14;12;
57884;PMS5003;43703;51.060;-0.086;2023-02-17T05:56:48;11;10;
57884;PMS5003;43703;51.060;-0.086;2023-02-17T05:59:12;11;11;
57884;PMS5003;43703;51.060;-0.086;2023-02-17T06:01:37;9;9;
57884;PMS5003;43703;51.060;-0.086;2023-02-17T06:04:02;12;9;
57884;PMS5003;43703;51.060;-0.086;2023-02-17T06:06:27;10;9;
57884;PMS5003;43703;51.060;-0.086;2023-02-17T06:08:52;13;11;
57884;PMS5003;43703;51.060;-0.086;2023-02-17T06:11:17;13;11;
57884;PMS5003;43703;51.060;-0.086;2023-02-17T06:13:42;10;8;
57884;PMS5003;43703;51.060;-0.086;2023-02-17T06:16:08;11;11;
57884;PMS5003;43703;51.060;-0.086;2023-02-17T06:18:34;7;7;
57884;PMS5003;43703;51.060;-0.086;2023-02-17T06:20:59;13;10;
57884;PMS5003;43703;51.060;-0.086;2023-02-17T06:23:25;11;10;
57884;PMS5003;43703;51.060;-0.086;2023-02-17T06:25:49;10;6;
57884;PMS5003;43703;51.060;-0.086;2023-02-17T06:28:15;7;7;
57884;PMS5003;43703;51.060;-0.086;2023-02-17T06:30:40;8;8;
57884;PMS5003;43703;51.060;-0.086;2023-02-17T06:33:08;7;5;
57884;PMS5003;43703;51.060;-0.086;2023-02-17T06:35:30;3;3;
57884;PMS5003;43703;51.060;-0.086;2023-02-17T06:37:55;3;3;
57884;PMS5003;43703;51.060;-0.086;2023-02-17T06:40:20;3;3;
57884;PMS5003;43703;51.060;-0.086;2023-02-17T06:42:46;3;3;
57884;PMS5003;43703;51.060;-0.086;2023-02-17T06:45:11;1;1;
57884;PMS5003;43703;51.060;-0.086;2023-02-17T06:47:37;3;2;
57884;PMS5003;43703;51.060;-0.086;2023-02-17T06:50:03;0;0;
57884;PMS5003;43703;51.060;-0.086;2023-02-17T06:52:28;1;1;
57884;PMS5003;43703;51.060;-0.086;2023-02-17T06:54:54;1;1;
57884;PMS5003;43703;51.060;-0.086;2023-02-17T06:57:19;1;1;
57884;PMS5003;43703;51.060;-0.086;2023-02-17T06:59:45;0;0;
57884;PMS5003;43703;51.060;-0.086;2023-02-17T07:02:11;0;0;
57884;PMS5003;43703;51.060;-0.086;2023-02-17T07:04:37;0;0;
57884;PMS5003;43703;51.060;-0.086;2023-02-17T07:07:03;0;0;
57884;PMS5003;43703;51.060;-0.086;2023-02-17T07:09:29;1;1;
57884;PMS5003;43703;51.060;-0.086;2023-02-17T07:11:56;0;0;
57884;PMS5003;43703;51.060;-0.086;2023-02-17T07:14:20;1;1;
57884;PMS5003;43703;51.060;-0.086;2023-02-17T07:16:46;0;0;
57884;PMS5003;43703;51.060;-0.086;2023-02-17T07:19:12;1;1;
57884;PMS5003;43703;51.060;-0.086;2023-02-17T07:21:37;0;0;
57884;PMS5003;43703;51.060;-0.086;2023-02-17T07:24:03;1;1;
57884;PMS5003;43703;51.060;-0.086;2023-02-17T07:26:29;0;0;
57884;PMS5003;43703;51.060;-0.086;2023-02-17T07:28:55;2;2;
57884;PMS5003;43703;51.060;-0.086;2023-02-17T07:31:21;0;0;
57884;PMS5003;43703;51.060;-0.086;2023-02-17T07:33:46;1;1;
57884;PMS5003;43703;51.060;-0.086;2023-02-17T07:36:13;1;1;
57884;PMS5003;43703;51.060;-0.086;2023-02-17T07:38:38;1;1;
57884;PMS5003;43703;51.060;-0.086;2023-02-17T07:41:04;1;1;
57884;PMS5003;43703;51.060;-0.086;2023-02-17T07:43:29;1;1;
57884;PMS5003;43703;51.060;-0.086;2023-02-17T07:45:55;1;1;
57884;PMS5003;43703;51.060;-0.086;2023-02-17T07:48:21;3;3;
57884;PMS5003;43703;51.060;-0.086;2023-02-17T07:50:46;8;4;
57884;PMS5003;43703;51.060;-0.086;2023-02-17T07:53:12;3;3;
57884;PMS5003;43703;51.060;-0.086;2023-02-17T07:55:38;3;3;
57884;PMS5003;43703;51.060;-0.086;2023-02-17T07:58:03;5;5;
57884;PMS5003;43703;51.060;-0.086;2023-02-17T08:00:28;3;3;
57884;PMS5003;43703;51.060;-0.086;2023-02-17T08:02:53;3;3;
57884;PMS5003;43703;51.060;-0.086;2023-02-17T08:05:20;2;2;
57884;PMS5003;43703;51.060;-0.086;2023-02-17T08:07:43;3;2;
57884;PMS5003;43703;51.060;-0.086;2023-02-17T08:10:10;3;2;
57884;PMS5003;43703;51.060;-0.086;2023-02-17T08:12:34;1;1;
57884;PMS5003;43703;51.060;-0.086;2023-02-17T08:15:00;3;1;
57884;PMS5003;43703;51.060;-0.086;2023-02-17T08:17:25;1;1;
57884;PMS5003;43703;51.060;-0.086;2023-02-17T08:19:51;4;4;
57884;PMS5003;43703;51.060;-0.086;2023-02-17T08:22:16;3;3;
57884;PMS5003;43703;51.060;-0.086;2023-02-17T08:24:41;3;3;
57884;PMS5003;43703;51.060;-0.086;2023-02-17T08:27:07;2;2;
57884;PMS5003;43703;51.060;-0.086;2023-02-17T08:29:33;4;4;
57884;PMS5003;43703;51.060;-0.086;2023-02-17T08:31:59;4;4;
57884;PMS5003;43703;51.060;-0.086;2023-02-17T08:34:24;5;5;
57884;PMS5003;43703;51.060;-0.086;2023-02-17T08:36:49;2;2;
57884;PMS5003;43703;51.060;-0.086;2023-02-17T08:39:15;3;3;
57884;PMS5003;43703;51.060;-0.086;2023-02-17T08:41:39;4;4;
57884;PMS5003;43703;51.060;-0.086;2023-02-17T08:44:06;4;4;
57884;PMS5003;43703;51.060;-0.086;2023-02-17T08:46:31;3;3;
57884;PMS5003;43703;51.060;-0.086;2023-02-17T08:48:57;4;2;
57884;PMS5003;43703;51.060;-0.086;2023-02-17T08:51:22;3;3;
57884;PMS5003;43703;51.060;-0.086;2023-02-17T08:53:48;4;4;
57884;PMS5003;43703;51.060;-0.086;2023-02-17T08:56:13;4;4;
57884;PMS5003;43703;51.060;-0.086;2023-02-17T08:58:38;4;4;
57884;PMS5003;43703;51.060;-0.086;2023-02-17T09:01:03;6;6;
57884;PMS5003;43703;51.060;-0.086;2023-02-17T09:03:28;5;5;
57884;PMS5003;43703;51.060;-0.086;2023-02-17T09:05:54;10;9;
57884;PMS5003;43703;51.060;-0.086;2023-02-17T09:08:19;6;6;
57884;PMS5003;43703;51.060;-0.086;2023-02-17T09:10:44;7;7;
57884;PMS5003;43703;51.060;-0.086;2023-02-17T09:13:09;8;8;
57884;PMS5003;43703;51.060;-0.086;2023-02-17T09:15:34;4;4;
57884;PMS5003;43703;51.060;-0.086;2023-02-17T09:17:59;6;6;
57884;PMS5003;43703;51.060;-0.086;2023-02-17T09:20:25;7;6;
57884;PMS5003;43703;51.060;-0.086;2023-02-17T09:22:50;7;7;
57884;PMS5003;43703;51.060;-0.086;2023-02-17T09:25:15;7;7;
57884;PMS5003;43703;51.060;-0.086;2023-02-17T09:27:40;6;6;
57884;PMS5003;43703;51.060;-0.086;2023-02-17T09:30:06;9;9;
57884;PMS5003;43703;51.060;-0.086;2023-02-17T09:32:30;7;7;
57884;PMS5003;43703;51.060;-0.086;2023-02-17T09:34:56;8;8;
57884;PMS5003;43703;51.060;-0.086;2023-02-17T09:37:21;6;6;
57884;PMS5003;43703;51.060;-0.086;2023-02-17T09:39:47;10;10;
57884;PMS5003;43703;51.060;-0.086;2023-02-17T09:42:12;6;6;
57884;PMS5003;43703;51.060;-0.086;2023-02-17T09:44:38;6;6;
57884;PMS5003;43703;51.060;-0.086;2023-02-17T09:47:02;7;7;
57884;PMS5003;43703;51.060;-0.086;2023-02-17T09:49:30;6;6;
57884;PMS5003;43703;51.060;-0.086;2023-02-17T09:51:53;8;8;
57884;PMS5003;43703;51.060;-0.086;2023-02-17T09:54:18;7;7;
57884;PMS5003;43703;51.060;-0.086;2023-02-17T09:56:44;6;6;
57884;PMS5003;43703;51.060;-0.086;2023-02-17T09:59:10;7;5;
57884;PMS5003;43703;51.060;-0.086;2023-02-17T10:01:33;8;6;
57884;PMS5003;43703;51.060;-0.086;2023-02-17T10:03:59;10;7;
57884;PMS5003;43703;51.060;-0.086;2023-02-17T10:06:24;5;5;
57884;PMS5003;43703;51.060;-0.086;2023-02-17T10:08:49;9;8;
57884;PMS5003;43703;51.060;-0.086;2023-02-17T10:11:16;7;7;
57884;PMS5003;43703;51.060;-0.086;2023-02-17T10:13:40;6;6;
57884;PMS5003;43703;51.060;-0.086;2023-02-17T10:16:07;4;4;
57884;PMS5003;43703;51.060;-0.086;2023-02-17T10:18:31;6;6;
57884;PMS5003;43703;51.060;-0.086;2023-02-17T10:20:57;5;4;
57884;PMS5003;43703;51.060;-0.086;2023-02-17T10:23:21;6;6;
57884;PMS5003;43703;51.060;-0.086;2023-02-17T10:25:50;5;5;
57884;PMS5003;43703;51.060;-0.086;2023-02-17T10:28:13;5;5;
57884;PMS5003;43703;51.060;-0.086;2023-02-17T10:30:37;8;7;
57884;PMS5003;43703;51.060;-0.086;2023-02-17T10:33:01;7;7;
57884;PMS5003;43703;51.060;-0.086;2023-02-17T10:35:28;8;8;
57884;PMS5003;43703;51.060;-0.086;2023-02-17T10:37:52;4;4;
57884;PMS5003;43703;51.060;-0.086;2023-02-17T10:40:18;12;12;
57884;PMS5003;43703;51.060;-0.086;2023-02-17T10:42:41;6;6;
57884;PMS5003;43703;51.060;-0.086;2023-02-17T10:45:09;8;8;
57884;PMS5003;43703;51.060;-0.086;2023-02-17T10:47:32;8;6;
57884;PMS5003;43703;51.060;-0.086;2023-02-17T10:49:58;8;8;
57884;PMS5003;43703;51.060;-0.086;2023-02-17T10:52:26;6;6;
57884;PMS5003;43703;51.060;-0.086;2023-02-17T10:54:50;6;6;
57884;PMS5003;43703;51.060;-0.086;2023-02-17T10:57:14;8;7;
57884;PMS5003;43703;51.060;-0.086;2023-02-17T10:59:39;6;6;
57884;PMS5003;43703;51.060;-0.086;2023-02-17T11:02:11;7;7;
57884;PMS5003;43703;51.060;-0.086;2023-02-17T11:04:37;7;6;
57884;PMS5003;43703;51.060;-0.086;2023-02-17T11:06:54;8;8;
57884;PMS5003;43703;51.060;-0.086;2023-02-17T11:09:21;8;8;
57884;PMS5003;43703;51.060;-0.086;2023-02-17T11:11:48;7;7;
57884;PMS5003;43703;51.060;-0.086;2023-02-17T11:14:16;8;8;
57884;PMS5003;43703;51.060;-0.086;2023-02-17T11:16:38;9;9;
57884;PMS5003;43703;51.060;-0.086;2023-02-17T11:19:02;10;9;
57884;PMS5003;43703;51.060;-0.086;2023-02-17T11:21:28;8;8;
57884;PMS5003;43703;51.060;-0.086;2023-02-17T11:23:54;8;8;
57884;PMS5003;43703;51.060;-0.086;2023-02-17T11:26:21;8;8;
57884;PMS5003;43703;51.060;-0.086;2023-02-17T11:28:44;9;8;
57884;PMS5003;43703;51.060;-0.086;2023-02-17T11:33:36;10;9;
57884;PMS5003;43703;51.060;-0.086;2023-02-17T11:36:02;8;8;
57884;PMS5003;43703;51.060;-0.086;2023-02-17T11:38:27;8;8;
57884;PMS5003;43703;51.060;-0.086;2023-02-17T11:40:53;7;7;
57884;PMS5003;43703;51.060;-0.086;2023-02-17T11:43:17;7;7;
57884;PMS5003;43703;51.060;-0.086;2023-02-17T11:45:52;8;6;
57884;PMS5003;43703;51.060;-0.086;2023-02-17T11:48:13;6;6;
57884;PMS5003;43703;51.060;-0.086;2023-02-17T11:50:34;6;6;
57884;PMS5003;43703;51.060;-0.086;2023-02-17T11:53:02;6;6;
57884;PMS5003;43703;51.060;-0.086;2023-02-17T11:55:26;8;6;
57884;PMS5003;43703;51.060;-0.086;2023-02-17T11:57:54;8;8;
57884;PMS5003;43703;51.060;-0.086;2023-02-17T12:00:17;6;5;
57884;PMS5003;43703;51.060;-0.086;2023-02-17T12:02:44;5;5;
57884;PMS5003;43703;51.060;-0.086;2023-02-17T12:05:10;8;7;
57884;PMS5003;43703;51.060;-0.086;2023-02-17T12:09:59;6;6;
57884;PMS5003;43703;51.060;-0.086;2023-02-17T12:12:25;8;8;
57884;PMS5003;43703;51.060;-0.086;2023-02-17T12:14:53;9;8;
57884;PMS5003;43703;51.060;-0.086;2023-02-17T12:17:16;6;6;
57884;PMS5003;43703;51.060;-0.086;2023-02-17T12:19:42;6;6;
57884;PMS5003;43703;51.060;-0.086;2023-02-17T12:22:10;8;7;
57884;PMS5003;43703;51.060;-0.086;2023-02-17T12:24:35;8;6;
57884;PMS5003;43703;51.060;-0.086;2023-02-17T12:27:00;6;6;
57884;PMS5003;43703;51.060;-0.086;2023-02-17T12:29:27;7;7;
57884;PMS5003;43703;51.060;-0.086;2023-02-17T12:31:54;6;6;
57884;PMS5003;43703;51.060;-0.086;2023-02-17T12:34:16;7;7;
57884;PMS5003;43703;51.060;-0.086;2023-02-17T12:36:40;5;5;
57884;PMS5003;43703;51.060;-0.086;2023-02-17T12:39:10;6;6;
57884;PMS5003;43703;51.060;-0.086;2023-02-17T12:41:32;5;3;
57884;PMS5003;43703;51.060;-0.086;2023-02-17T12:43:58;4;4;
57884;PMS5003;43703;51.060;-0.086;2023-02-17T12:46:24;5;5;
57884;PMS5003;43703;51.060;-0.086;2023-02-17T12:48:50;4;4;
57884;PMS5003;43703;51.060;-0.086;2023-02-17T12:51:17;6;6;
57884;PMS5003;43703;51.060;-0.086;2023-02-17T12:53:42;6;4;
57884;PMS5003;43703;51.060;-0.086;2023-02-17T12:58:33;8;8;
57884;PMS5003;43703;51.060;-0.086;2023-02-17T13:00:59;3;3;
57884;PMS5003;43703;51.060;-0.086;2023-02-17T13:03:27;5;5;
57884;PMS5003;43703;51.060;-0.086;2023-02-17T13:05:50;7;5;
57884;PMS5003;43703;51.060;-0.086;2023-02-17T13:08:17;6;5;
57884;PMS5003;43703;51.060;-0.086;2023-02-17T13:10:42;6;6;
57884;PMS5003;43703;51.060;-0.086;2023-02-17T13:13:08;7;7;
57884;PMS5003;43703;51.060;-0.086;2023-02-17T13:15:35;8;5;
57884;PMS5003;43703;51.060;-0.086;2023-02-17T13:18:00;7;7;
57884;PMS5003;43703;51.060;-0.086;2023-02-17T13:20:28;9;9;
57884;PMS5003;43703;51.060;-0.086;2023-02-17T13:22:50;6;6;
57884;PMS5003;43703;51.060;-0.086;2023-02-17T13:27:41;6;6;
57884;PMS5003;43703;51.060;-0.086;2023-02-17T13:30:25;8;7;
57884;PMS5003;43703;51.060;-0.086;2023-02-17T13:32:34;7;7;
57884;PMS5003;43703;51.060;-0.086;2023-02-17T13:34:59;10;10;
57884;PMS5003;43703;51.060;-0.086;2023-02-17T13:37:25;5;5;
57884;PMS5003;43703;51.060;-0.086;2023-02-17T13:39:50;7;7;
57884;PMS5003;43703;51.060;-0.086;2023-02-17T13:44:40;9;7;
57884;PMS5003;43703;51.060;-0.086;2023-02-17T13:47:10;8;8;
57884;PMS5003;43703;51.060;-0.086;2023-02-17T13:49:32;9;9;
57884;PMS5003;43703;51.060;-0.086;2023-02-17T13:54:22;8;8;
57884;PMS5003;43703;51.060;-0.086;2023-02-17T13:56:49;9;9;
57884;PMS5003;43703;51.060;-0.086;2023-02-17T13:59:13;9;8;
57884;PMS5003;43703;51.060;-0.086;2023-02-17T14:01:40;7;7;
57884;PMS5003;43703;51.060;-0.086;2023-02-17T14:04:14;7;7;
57884;PMS5003;43703;51.060;-0.086;2023-02-17T14:06:29;6;6;
57884;PMS5003;43703;51.060;-0.086;2023-02-17T14:08:53;7;7;
57884;PMS5003;43703;51.060;-0.086;2023-02-17T14:11:20;14;11;
57884;PMS5003;43703;51.060;-0.086;2023-02-17T14:13:44;6;6;
57884;PMS5003;43703;51.060;-0.086;2023-02-17T14:18:35;8;8;
57884;PMS5003;43703;51.060;-0.086;2023-02-17T14:21:00;7;7;
57884;PMS5003;43703;51.060;-0.086;2023-02-17T14:23:24;10;9;
57884;PMS5003;43703;51.060;-0.086;2023-02-17T14:25:49;9;9;
57884;PMS5003;43703;51.060;-0.086;2023-02-17T14:28:16;10;9;
57884;PMS5003;43703;51.060;-0.086;2023-02-17T14:30:40;9;9;
57884;PMS5003;43703;51.060;-0.086;2023-02-17T14:33:05;12;11;
57884;PMS5003;43703;51.060;-0.086;2023-02-17T14:35:30;11;10;
57884;PMS5003;43703;51.060;-0.086;2023-02-17T14:40:21;10;10;
57884;PMS5003;43703;51.060;-0.086;2023-02-17T14:42:45;13;11;
57884;PMS5003;43703;51.060;-0.086;2023-02-17T14:45:10;11;10;
57884;PMS5003;43703;51.060;-0.086;2023-02-17T14:47:35;10;8;
57884;PMS5003;43703;51.060;-0.086;2023-02-17T14:50:01;12;10;
57884;PMS5003;43703;51.060;-0.086;2023-02-17T14:52:26;9;9;
57884;PMS5003;43703;51.060;-0.086;2023-02-17T14:54:52;8;8;
57884;PMS5003;43703;51.060;-0.086;2023-02-17T14:57:17;10;10;
57884;PMS5003;43703;51.060;-0.086;2023-02-17T14:59:43;11;11;
57884;PMS5003;43703;51.060;-0.086;2023-02-17T15:02:11;9;9;
57884;PMS5003;43703;51.060;-0.086;2023-02-17T15:04:34;10;10;
57884;PMS5003;43703;51.060;-0.086;2023-02-17T15:06:59;8;8;
57884;PMS5003;43703;51.060;-0.086;2023-02-17T15:09:26;16;14;
57884;PMS5003;43703;51.060;-0.086;2023-02-17T15:11:50;12;8;
57884;PMS5003;43703;51.060;-0.086;2023-02-17T15:14:18;8;8;
57884;PMS5003;43703;51.060;-0.086;2023-02-17T15:16:42;12;11;
57884;PMS5003;43703;51.060;-0.086;2023-02-17T15:19:08;7;7;
57884;PMS5003;43703;51.060;-0.086;2023-02-17T15:21:34;9;9;
57884;PMS5003;43703;51.060;-0.086;2023-02-17T15:24:00;10;10;
57884;PMS5003;43703;51.060;-0.086;2023-02-17T15:26:25;9;7;
57884;PMS5003;43703;51.060;-0.086;2023-02-17T15:28:50;8;8;
57884;PMS5003;43703;51.060;-0.086;2023-02-17T15:31:16;14;11;
57884;PMS5003;43703;51.060;-0.086;2023-02-17T15:33:42;11;9;
57884;PMS5003;43703;51.060;-0.086;2023-02-17T15:36:08;13;10;
57884;PMS5003;43703;51.060;-0.086;2023-02-17T15:38:32;12;11;
57884;PMS5003;43703;51.060;-0.086;2023-02-17T15:40:58;10;9;
57884;PMS5003;43703;51.060;-0.086;2023-02-17T15:43:26;12;9;
57884;PMS5003;43703;51.060;-0.086;2023-02-17T15:45:49;10;10;
57884;PMS5003;43703;51.060;-0.086;2023-02-17T15:48:16;10;9;
57884;PMS5003;43703;51.060;-0.086;2023-02-17T15:50:39;11;11;
57884;PMS5003;43703;51.060;-0.086;2023-02-17T15:53:05;11;9;
57884;PMS5003;43703;51.060;-0.086;2023-02-17T15:55:30;11;8;
57884;PMS5003;43703;51.060;-0.086;2023-02-17T15:57:57;10;9;
57884;PMS5003;43703;51.060;-0.086;2023-02-17T16:00:21;11;11;
57884;PMS5003;43703;51.060;-0.086;2023-02-17T16:02:46;10;10;
57884;PMS5003;43703;51.060;-0.086;2023-02-17T16:05:12;13;10;
57884;PMS5003;43703;51.060;-0.086;2023-02-17T16:07:36;9;9;
57884;PMS5003;43703;51.060;-0.086;2023-02-17T16:10:02;14;10;
57884;PMS5003;43703;51.060;-0.086;2023-02-17T16:12:27;11;10;
57884;PMS5003;43703;51.060;-0.086;2023-02-17T16:14:53;10;9;
57884;PMS5003;43703;51.060;-0.086;2023-02-17T16:17:18;12;9;
57884;PMS5003;43703;51.060;-0.086;2023-02-17T16:19:44;12;9;
57884;PMS5003;43703;51.060;-0.086;2023-02-17T16:22:09;8;8;
57884;PMS5003;43703;51.060;-0.086;2023-02-17T16:24:34;11;11;
57884;PMS5003;43703;51.060;-0.086;2023-02-17T16:26:59;11;11;
57884;PMS5003;43703;51.060;-0.086;2023-02-17T16:29:25;9;7;
57884;PMS5003;43703;51.060;-0.086;2023-02-17T16:31:50;12;9;